Time;durP1;ratioP1;P1;durP2;ratioP2;P2;SDS_P1;SDS_P2;PMS_P1;PMS_P2;Temp;Humidity;BMP_temperature;BMP_pressure;BME280_temperature;BME280_humidity;BME280_pressure;Samples;Min_cycle;Max_cycle;Signal;HPM_P1;HPM_P2
2024/02/19 00:01:07;;;;;;;15.27;8.73;;;;;;;2.14;66.46;101400.59;5092738;28;20270;-57
2024/02/19 00:03:36;;;;;;;13.23;8.40;;;;;;;2.10;66.20;101383.47;5091992;28;20197;-55
2024/02/19 00:06:05;;;;;;;14.00;8.23;;;;;;;2.08;66.68;101385.06;5091329;28;20204;-57
2024/02/19 00:08:34;;;;;;;12.07;8.23;;;;;;;2.07;66.48;101383.31;5088272;28;20257;-57
2024/02/19 00:11:02;;;;;;;12.73;7.70;;;;;;;2.03;66.60;101376.38;5078694;28;20315;-57
2024/02/19 00:13:31;;;;;;;12.83;7.90;;;;;;;2.03;66.57;101370.41;5090510;28;20231;-57
2024/02/19 00:16:00;;;;;;;12.37;8.23;;;;;;;2.00;67.45;101367.72;5091944;28;20204;-59
2024/02/19 00:18:28;;;;;;;11.97;7.83;;;;;;;2.00;67.23;101372.81;5092060;28;20208;-58
2024/02/19 00:20:56;;;;;;;11.90;7.60;;;;;;;1.98;67.20;101371.88;5088356;28;20679;-57
2024/02/19 00:23:24;;;;;;;12.97;8.33;;;;;;;1.97;67.53;101362.50;5096161;28;20239;-57
2024/02/19 00:25:52;;;;;;;11.70;6.97;;;;;;;1.96;67.36;101363.31;5083672;28;20575;-58
2024/02/19 00:28:20;;;;;;;15.73;8.20;;;;;;;1.93;66.58;101370.00;5090438;28;20557;-58
2024/02/19 00:30:50;;;;;;;11.30;7.70;;;;;;;1.91;67.89;101369.06;5088531;28;20220;-57
2024/02/19 00:33:18;;;;;;;14.37;7.07;;;;;;;1.90;67.36;101364.75;5091618;28;20205;-58
2024/02/19 00:35:46;;;;;;;10.90;7.33;;;;;;;1.93;68.00;101358.97;5091638;28;20200;-58
2024/02/19 00:38:14;;;;;;;15.70;7.40;;;;;;;2.01;68.08;101364.38;5091059;28;20200;-60
2024/02/19 00:40:42;;;;;;;11.73;7.00;;;;;;;2.06;67.43;101361.25;5089109;28;20288;-56
2024/02/19 00:43:11;;;;;;;11.70;6.97;;;;;;;2.05;67.46;101348.47;5077790;28;20270;-57
2024/02/19 00:45:39;;;;;;;13.40;7.70;;;;;;;2.04;66.80;101347.59;5090569;28;20291;-56
2024/02/19 00:48:08;;;;;;;14.83;7.90;;;;;;;1.98;66.83;101342.22;5089364;28;20240;-58
2024/02/19 00:50:36;;;;;;;13.27;6.93;;;;;;;1.96;66.29;101332.81;5083420;28;20217;-56
2024/02/19 00:53:05;;;;;;;11.50;7.03;;;;;;;1.91;66.75;101330.94;5090489;28;20232;-57
2024/02/19 00:55:33;;;;;;;10.53;7.17;;;;;;;1.90;66.86;101315.63;5091231;28;20682;-57
2024/02/19 00:58:01;;;;;;;15.83;8.03;;;;;;;1.93;67.82;101321.69;5091461;28;20617;-60
2024/02/19 01:00:29;;;;;;;11.13;7.40;;;;;;;1.93;67.00;101298.81;5085075;28;20228;-64
2024/02/19 01:02:58;;;;;;;10.57;7.27;;;;;;;1.92;66.86;101306.41;5091390;28;20231;-57
2024/02/19 01:05:27;;;;;;;11.93;6.30;;;;;;;1.92;67.24;101296.22;5090751;28;20204;-58
2024/02/19 01:07:55;;;;;;;10.53;7.03;;;;;;;1.87;67.13;101293.47;5088500;28;20906;-57
2024/02/19 01:10:23;;;;;;;11.77;7.40;;;;;;;1.93;66.94;101295.41;5090421;28;20541;-56
2024/02/19 01:12:51;;;;;;;9.93;7.33;;;;;;;1.92;67.24;101291.16;5089499;28;20251;-56
2024/02/19 01:15:19;;;;;;;10.03;7.23;;;;;;;1.94;67.77;101294.59;5090311;28;20626;-60
2024/02/19 01:17:48;;;;;;;13.13;7.30;;;;;;;1.91;67.20;101290.28;5087510;28;20295;-62
2024/02/19 01:20:16;;;;;;;12.10;7.13;;;;;;;1.92;66.21;101291.16;5083245;28;20215;-56
2024/02/19 01:22:45;;;;;;;12.57;7.30;;;;;;;1.91;66.48;101290.28;5089334;28;20209;-56
2024/02/19 01:25:13;;;;;;;11.53;6.63;;;;;;;1.92;67.55;101276.75;5088382;28;20695;-57
2024/02/19 01:27:42;;;;;;;10.37;6.57;;;;;;;1.94;67.28;101275.13;5085327;28;20214;-55
2024/02/19 01:30:11;;;;;;;11.00;6.77;;;;;;;1.92;66.61;101274.22;5095895;28;20669;-61
2024/02/19 01:32:40;;;;;;;9.87;6.83;;;;;;;1.90;66.90;101260.56;5090234;28;20208;-57
2024/02/19 01:35:09;;;;;;;11.27;7.27;;;;;;;1.84;67.34;101250.16;5089564;28;20912;-57
2024/02/19 01:37:37;;;;;;;9.00;5.90;;;;;;;1.82;66.52;101246.66;5091089;28;20207;-57
2024/02/19 01:40:09;;;;;;;10.97;6.50;;;;;;;1.82;67.47;101244.13;5090972;28;20192;-58
2024/02/19 01:42:38;;;;;;;10.60;6.60;;;;;;;1.80;67.79;101233.00;5084098;28;20204;-59
2024/02/19 01:45:22;;;;;;;8.10;6.03;;;;;;;1.80;67.21;101210.16;5087343;28;20208;-57
2024/02/19 01:47:50;;;;;;;8.67;6.30;;;;;;;1.81;67.30;101222.06;5091077;28;20197;-57
2024/02/19 01:50:19;;;;;;;9.77;6.27;;;;;;;1.78;66.51;101204.16;5090442;28;20239;-60
2024/02/19 01:52:48;;;;;;;9.60;6.40;;;;;;;1.75;66.63;101201.47;5086737;28;20213;-58
2024/02/19 01:55:19;;;;;;;9.23;5.77;;;;;;;1.73;67.52;101198.00;5086811;28;20649;-58
2024/02/19 01:57:48;;;;;;;11.23;5.70;;;;;;;1.69;67.57;101178.34;5090765;28;20251;-56
2024/02/19 02:00:17;;;;;;;7.87;5.60;;;;;;;1.66;67.64;101176.56;5090330;28;20714;-57
2024/02/19 02:02:45;;;;;;;10.40;6.00;;;;;;;1.69;66.72;101178.34;5091881;28;20261;-58
2024/02/19 02:05:14;;;;;;;6.73;5.33;;;;;;;1.68;67.93;101171.53;5092126;28;20250;-59
2024/02/19 02:07:42;;;;;;;8.73;4.97;;;;;;;1.67;66.68;101172.34;5093982;28;20232;-56
2024/02/19 02:10:10;;;;;;;7.77;5.33;;;;;;;1.61;66.83;101172.94;5094399;28;20200;-62
2024/02/19 02:12:39;;;;;;;6.57;5.03;;;;;;;1.60;67.07;101165.25;5088712;28;20247;-61
2024/02/19 02:15:08;;;;;;;8.47;5.63;;;;;;;1.58;66.75;101156.69;5095218;28;20211;-61
2024/02/19 02:17:36;;;;;;;7.53;5.20;;;;;;;1.55;67.58;101162.53;5094110;28;20197;-59
2024/02/19 02:20:06;;;;;;;7.00;5.10;;;;;;;1.55;67.36;101157.44;5094144;28;20201;-57
2024/02/19 02:22:35;;;;;;;8.77;5.30;;;;;;;1.54;67.12;101159.91;5094733;28;20201;-59
2024/02/19 02:25:04;;;;;;;7.70;4.97;;;;;;;1.56;67.94;101153.22;5099254;28;20759;-60
2024/02/19 02:27:35;;;;;;;8.00;5.03;;;;;;;1.56;67.46;101151.56;5089953;28;20693;-58
2024/02/19 02:30:04;;;;;;;7.50;4.67;;;;;;;1.59;67.02;101156.78;5078716;28;20205;-55
2024/02/19 02:32:33;;;;;;;7.20;5.00;;;;;;;1.59;67.62;101156.78;5089139;28;20228;-59
2024/02/19 02:35:02;;;;;;;6.40;4.60;;;;;;;1.59;67.84;101153.38;5082929;28;20657;-58
2024/02/19 02:37:31;;;;;;;7.07;4.20;;;;;;;1.61;66.58;101157.69;5093967;28;20315;-57
2024/02/19 02:39:59;;;;;;;6.73;4.40;;;;;;;1.57;67.37;101145.66;5093787;28;20193;-57
2024/02/19 02:42:27;;;;;;;6.43;5.17;;;;;;;1.52;67.59;101141.22;5093546;28;20254;-59
2024/02/19 02:44:56;;;;;;;6.80;4.13;;;;;;;1.50;66.87;101133.50;5093530;28;20205;-56
2024/02/19 02:47:24;;;;;;;7.67;5.37;;;;;;;1.49;67.68;101125.84;5093332;28;20243;-56
2024/02/19 02:49:53;;;;;;;6.37;4.67;;;;;;;1.48;66.45;101131.72;5084984;28;20202;-56
2024/02/19 02:52:21;;;;;;;7.47;4.33;;;;;;;1.43;67.00;101121.34;5092349;28;20220;-57
2024/02/19 02:54:49;;;;;;;7.97;5.07;;;;;;;1.42;67.59;101109.47;5092591;28;20196;-57
2024/02/19 02:57:17;;;;;;;7.17;4.77;;;;;;;1.41;67.46;101118.75;5093339;28;20227;-59
2024/02/19 02:59:45;;;;;;;7.37;5.43;;;;;;;1.39;66.76;101119.47;5092714;28;20683;-57
2024/02/19 03:02:14;;;;;;;7.53;5.00;;;;;;;1.34;67.49;101105.75;5092942;28;20531;-56
2024/02/19 03:04:42;;;;;;;9.80;4.57;;;;;;;1.37;67.74;101109.28;5092742;28;20222;-57
2024/02/19 03:07:10;;;;;;;6.27;5.07;;;;;;;1.35;67.79;101099.84;5086799;28;20196;-56
2024/02/19 03:09:41;;;;;;;5.73;4.37;;;;;;;1.37;66.86;101106.75;5089896;28;20312;-55
2024/02/19 03:12:09;;;;;;;6.67;4.70;;;;;;;1.40;67.73;101084.03;5100989;28;20244;-57
2024/02/19 03:14:38;;;;;;;6.87;4.73;;;;;;;1.40;67.92;101063.72;5091902;28;20224;-58
2024/02/19 03:17:07;;;;;;;6.10;5.10;;;;;;;1.41;66.88;101065.44;5093008;28;20672;-56
2024/02/19 03:19:36;;;;;;;10.27;5.60;;;;;;;1.37;67.02;101061.03;5092754;28;20256;-57
2024/02/19 03:22:05;;;;;;;10.17;5.23;;;;;;;1.37;68.04;101061.03;5092333;28;20188;-56
2024/02/19 03:24:34;;;;;;;8.77;5.43;;;;;;;1.37;67.37;101065.25;5090016;28;20556;-57
2024/02/19 03:27:04;;;;;;;7.63;5.07;;;;;;;1.39;67.56;101069.56;5085727;28;20677;-55
2024/02/19 03:29:32;;;;;;;6.93;5.27;;;;;;;1.40;66.98;101071.31;5089703;28;20654;-59
2024/02/19 03:32:00;;;;;;;6.80;5.03;;;;;;;1.38;68.24;101057.69;5092322;28;20211;-58
2024/02/19 03:34:28;;;;;;;7.27;5.33;;;;;;;1.38;68.64;101042.44;5090895;28;20654;-56
2024/02/19 03:36:57;;;;;;;7.87;5.20;;;;;;;1.38;68.39;101050.06;5091286;28;20645;-58
2024/02/19 03:39:26;;;;;;;6.73;5.03;;;;;;;1.39;68.00;101049.25;5090772;28;20207;-62
2024/02/19 03:41:54;;;;;;;8.77;5.77;;;;;;;1.37;68.19;101045.81;5086999;28;20590;-58
2024/02/19 03:44:22;;;;;;;7.77;5.60;;;;;;;1.34;68.71;101040.59;5076494;28;20674;-57
2024/02/19 03:46:50;;;;;;;8.27;5.87;;;;;;;1.30;68.90;101053.97;5089268;28;20227;-58
2024/02/19 03:49:18;;;;;;;7.97;5.67;;;;;;;1.27;68.87;101058.03;5092842;28;20822;-58
2024/02/19 03:51:46;;;;;;;7.67;5.77;;;;;;;1.25;69.56;101060.50;5088651;28;20697;-58
2024/02/19 03:54:15;;;;;;;9.30;5.70;;;;;;;1.29;68.89;101048.81;5088968;28;20534;-57
2024/02/19 03:56:43;;;;;;;10.63;6.13;;;;;;;1.29;69.00;101052.22;5092544;28;20675;-58
2024/02/19 03:59:11;;;;;;;8.37;5.47;;;;;;;1.30;69.38;101061.56;5092100;28;20225;-58
2024/02/19 04:01:39;;;;;;;7.93;5.70;;;;;;;1.33;69.20;101038.00;5091592;28;20201;-58
2024/02/19 04:04:08;;;;;;;8.73;5.67;;;;;;;1.29;69.40;101021.78;5086291;28;20557;-57
2024/02/19 04:06:36;;;;;;;8.77;6.20;;;;;;;1.24;69.42;101014.75;5091720;28;20209;-58
2024/02/19 04:09:04;;;;;;;9.17;5.97;;;;;;;1.17;69.47;101006.88;5089559;28;20679;-57
2024/02/19 04:11:33;;;;;;;7.70;5.97;;;;;;;1.16;70.10;101011.91;5079410;28;20290;-57
2024/02/19 04:14:01;;;;;;;7.70;5.67;;;;;;;1.15;69.85;100997.47;5084697;28;20211;-62
2024/02/19 04:16:29;;;;;;;8.30;5.80;;;;;;;1.12;70.03;100982.13;5090691;28;20200;-56
2024/02/19 04:18:57;;;;;;;7.60;5.50;;;;;;;1.06;70.11;100980.19;5091954;28;20667;-56
2024/02/19 04:21:25;;;;;;;10.17;6.03;;;;;;;1.04;70.03;100983.47;5091718;28;20232;-58
2024/02/19 04:23:53;;;;;;;8.37;5.97;;;;;;;1.02;70.65;100985.94;5091711;28;20265;-58
2024/02/19 04:26:21;;;;;;;8.13;5.53;;;;;;;1.01;69.95;100965.59;5090660;28;20208;-56
2024/02/19 04:28:53;;;;;;;10.37;5.73;;;;;;;0.98;70.44;100948.53;5086218;28;20198;-57
2024/02/19 04:31:20;;;;;;;7.43;5.97;;;;;;;0.98;70.88;100952.75;5095370;28;20288;-56
2024/02/19 04:33:49;;;;;;;7.63;5.67;;;;;;;0.93;70.49;100945.81;5086236;28;20209;-61
2024/02/19 04:36:17;;;;;;;9.07;6.13;;;;;;;0.88;71.42;100934.59;5084705;28;20209;-55
2024/02/19 04:38:45;;;;;;;7.40;5.87;;;;;;;0.85;71.52;100934.50;5091401;28;20266;-56
2024/02/19 04:41:13;;;;;;;9.47;5.37;;;;;;;0.89;71.64;100949.03;5091221;28;20572;-58
2024/02/19 04:43:41;;;;;;;7.30;5.60;;;;;;;0.90;71.67;100943.16;5091343;28;20205;-55
2024/02/19 04:46:11;;;;;;;7.97;5.43;;;;;;;0.95;71.68;100953.50;5090806;28;20200;-56
2024/02/19 04:48:39;;;;;;;8.40;5.50;;;;;;;0.99;71.90;100950.28;5089174;28;20207;-58
2024/02/19 04:51:08;;;;;;;8.60;5.77;;;;;;;1.01;71.68;100948.69;5088671;28;20197;-57
2024/02/19 04:53:36;;;;;;;9.73;6.03;;;;;;;1.01;71.19;100933.44;5088279;28;20227;-60
2024/02/19 04:56:04;;;;;;;7.20;5.43;;;;;;;0.99;71.10;100929.97;5086696;28;20200;-58
2024/02/19 04:58:32;;;;;;;6.83;5.47;;;;;;;0.98;70.59;100933.31;5091179;28;20349;-57
2024/02/19 05:01:01;;;;;;;7.03;5.20;;;;;;;0.96;71.43;100934.94;5090994;28;20200;-56
2024/02/19 05:03:30;;;;;;;6.63;5.47;;;;;;;0.98;71.17;100927.38;5082091;28;20204;-59
2024/02/19 05:05:58;;;;;;;7.17;5.23;;;;;;;0.98;71.12;100918.09;5087117;28;20291;-56
2024/02/19 05:08:27;;;;;;;7.47;5.67;;;;;;;0.95;71.58;100912.88;5092640;28;20584;-57
2024/02/19 05:10:54;;;;;;;7.30;5.40;;;;;;;0.91;71.13;100906.81;5090752;28;20197;-56
2024/02/19 05:13:22;;;;;;;7.10;5.20;;;;;;;0.90;71.50;100910.16;5090518;28;20268;-57
2024/02/19 05:15:51;;;;;;;6.53;5.27;;;;;;;0.85;71.22;100898.13;5085144;28;20613;-57
2024/02/19 05:18:19;;;;;;;7.47;4.83;;;;;;;0.86;71.32;100888.03;5088513;28;20208;-58
2024/02/19 05:20:49;;;;;;;7.00;4.73;;;;;;;0.84;71.70;100884.53;5087154;28;20304;-59
2024/02/19 05:23:17;;;;;;;8.97;5.53;;;;;;;0.84;71.64;100879.47;5090526;28;20204;-62
2024/02/19 05:25:45;;;;;;;8.53;5.27;;;;;;;0.83;70.98;100870.13;5090855;28;20236;-60
2024/02/19 05:28:13;;;;;;;6.07;5.00;;;;;;;0.80;71.08;100872.53;5090493;28;20201;-58
2024/02/19 05:30:41;;;;;;;6.67;5.27;;;;;;;0.76;71.58;100863.06;5091105;28;20208;-56
2024/02/19 05:33:09;;;;;;;6.77;4.87;;;;;;;0.75;72.29;100866.41;5084674;28;20661;-61
2024/02/19 05:35:37;;;;;;;8.73;5.97;;;;;;;0.76;72.23;100869.81;5080135;28;20209;-57
2024/02/19 05:38:07;;;;;;;8.47;4.80;;;;;;;0.76;72.01;100862.22;5093968;28;20295;-59
2024/02/19 05:40:35;;;;;;;6.50;5.17;;;;;;;0.76;72.01;100855.47;5090574;28;20232;-57
2024/02/19 05:43:03;;;;;;;6.27;5.23;;;;;;;0.77;71.86;100831.81;5083939;28;20637;-57
2024/02/19 05:45:31;;;;;;;6.33;4.67;;;;;;;0.72;71.87;100821.50;5090225;28;20684;-61
2024/02/19 05:47:59;;;;;;;8.13;5.00;;;;;;;0.70;72.20;100828.19;5084973;28;20201;-61
2024/02/19 05:50:30;;;;;;;7.23;4.93;;;;;;;0.73;72.72;100845.19;5089448;28;20222;-58
2024/02/19 05:52:58;;;;;;;7.17;4.67;;;;;;;0.74;72.15;100826.66;5091322;28;20689;-61
2024/02/19 05:55:30;;;;;;;6.80;4.83;;;;;;;0.78;72.14;100831.03;5075186;28;20196;-54
2024/02/19 05:58:01;;;;;;;6.97;4.97;;;;;;;0.80;71.98;100829.41;5085814;28;20200;-59
2024/02/19 06:00:29;;;;;;;5.27;4.57;;;;;;;0.82;72.77;100830.34;5090987;28;20788;-58
2024/02/19 06:03:03;;;;;;;6.43;4.87;;;;;;;0.86;72.01;100831.34;5091145;28;20570;-59
2024/02/19 06:05:31;;;;;;;6.80;4.97;;;;;;;0.90;72.67;100848.41;5091142;28;20200;-57
2024/02/19 06:07:59;;;;;;;6.57;4.77;;;;;;;0.95;72.72;100862.16;5091223;28;20208;-62
2024/02/19 06:10:28;;;;;;;5.97;4.63;;;;;;;1.00;72.00;100849.66;5091053;28;20197;-59
2024/02/19 06:12:57;;;;;;;7.57;5.13;;;;;;;0.93;71.89;100839.25;5086175;28;20590;-58
2024/02/19 06:15:27;;;;;;;6.63;4.67;;;;;;;0.91;72.23;100838.31;5075945;28;20714;-58
2024/02/19 06:17:55;;;;;;;6.13;4.27;;;;;;;0.91;71.89;100842.53;5086997;28;20209;-58
2024/02/19 06:20:23;;;;;;;10.57;5.40;;;;;;;0.93;71.87;100828.25;5088892;28;20964;-56
2024/02/19 06:22:51;;;;;;;6.57;4.77;;;;;;;0.93;71.90;100815.56;5090191;28;20207;-60
2024/02/19 06:25:20;;;;;;;6.67;4.90;;;;;;;0.94;71.67;100812.22;5079550;28;20201;-56
2024/02/19 06:27:49;;;;;;;7.80;5.13;;;;;;;0.89;71.71;100801.91;5087067;28;20204;-59
2024/02/19 06:30:18;;;;;;;6.53;4.90;;;;;;;0.86;71.60;100786.53;5088606;28;20283;-58
2024/02/19 06:32:46;;;;;;;7.37;5.40;;;;;;;0.86;71.68;100771.31;5088051;28;20213;-57
2024/02/19 06:35:14;;;;;;;6.83;5.63;;;;;;;0.85;71.93;100773.81;5088148;28;20199;-62
2024/02/19 06:37:42;;;;;;;6.43;5.00;;;;;;;0.82;72.28;100772.00;5090238;28;20232;-57
2024/02/19 06:40:12;;;;;;;6.60;5.23;;;;;;;0.83;72.38;100768.66;5083637;28;20587;-58
2024/02/19 06:42:41;;;;;;;7.40;5.03;;;;;;;0.83;71.96;100763.59;5080320;28;20729;-57
2024/02/19 06:45:11;;;;;;;7.63;5.50;;;;;;;0.86;72.15;100780.59;5089064;28;20204;-58
2024/02/19 06:47:40;;;;;;;6.60;5.27;;;;;;;0.92;71.82;100786.81;5087021;28;20604;-60
2024/02/19 06:50:09;;;;;;;6.73;5.47;;;;;;;1.00;71.85;100781.16;5091576;28;20209;-59
2024/02/19 06:52:39;;;;;;;8.60;5.33;;;;;;;1.05;71.93;100775.44;5092711;28;20287;-59
2024/02/19 06:55:07;;;;;;;7.40;5.10;;;;;;;1.15;71.55;100777.53;5085661;28;20196;-58
2024/02/19 06:57:35;;;;;;;6.90;4.57;;;;;;;1.19;71.48;100760.75;5088526;28;20218;-59
2024/02/19 07:00:04;;;;;;;7.30;6.17;;;;;;;1.26;70.89;100756.78;5090102;28;20527;-59
2024/02/19 07:02:33;;;;;;;6.87;5.03;;;;;;;1.26;70.72;100744.94;5083963;28;20268;-61
2024/02/19 07:05:05;;;;;;;8.17;5.90;;;;;;;1.25;70.61;100729.63;5092862;28;20212;-61
2024/02/19 07:07:34;;;;;;;8.47;5.17;;;;;;;1.26;71.00;100727.16;5092868;28;20200;-58
2024/02/19 07:10:03;;;;;;;6.10;5.07;;;;;;;1.30;70.91;100734.09;5091253;28;20226;-58
2024/02/19 07:12:32;;;;;;;7.90;5.87;;;;;;;1.33;70.48;100736.75;5091544;28;20309;-57
2024/02/19 07:15:00;;;;;;;9.63;5.80;;;;;;;1.31;70.26;100738.34;5090625;28;20305;-58
2024/02/19 07:17:29;;;;;;;8.67;6.00;;;;;;;1.32;70.31;100736.66;5092634;28;20200;-60
2024/02/19 07:19:59;;;;;;;7.47;5.30;;;;;;;1.33;70.87;100740.97;5093515;28;20197;-58
2024/02/19 07:22:28;;;;;;;6.43;5.27;;;;;;;1.29;70.30;100726.41;5085502;28;20218;-59
2024/02/19 07:24:56;;;;;;;7.67;5.60;;;;;;;1.29;70.22;100727.28;5085495;28;20193;-59
2024/02/19 07:27:40;;;;;;;6.60;4.93;;;;;;;1.27;70.83;100723.81;5087748;28;20670;-59
2024/02/19 07:30:12;;;;;;;6.73;4.80;;;;;;;1.29;70.61;100717.13;5085697;28;20298;-59
2024/02/19 07:32:40;;;;;;;5.97;4.73;;;;;;;1.29;70.31;100719.66;5093217;28;20201;-62
2024/02/19 07:35:10;;;;;;;9.63;5.27;;;;;;;1.31;71.02;100715.50;5092520;28;20213;-57
2024/02/19 07:37:38;;;;;;;6.60;4.83;;;;;;;1.36;70.60;100716.56;5089084;28;20297;-59
2024/02/19 07:40:07;;;;;;;8.57;5.13;;;;;;;1.41;70.20;100712.50;5092924;28;20196;-57
2024/02/19 07:42:36;;;;;;;8.27;5.87;;;;;;;1.49;70.84;100709.38;5093157;28;20300;-56
2024/02/19 07:45:06;;;;;;;8.57;5.43;;;;;;;1.51;69.57;100698.47;5088189;28;20243;-57
2024/02/19 07:47:34;;;;;;;5.77;4.70;;;;;;;1.52;69.82;100700.19;5087545;28;20211;-57
2024/02/19 07:50:03;;;;;;;7.00;5.40;;;;;;;1.60;69.99;100708.06;5088223;28;20257;-57
2024/02/19 07:52:32;;;;;;;6.87;5.07;;;;;;;1.61;69.88;100719.94;5091618;28;20208;-57
2024/02/19 07:55:01;;;;;;;6.50;5.67;;;;;;;1.63;70.19;100705.63;5089401;28;20685;-57
2024/02/19 07:57:29;;;;;;;7.27;5.50;;;;;;;1.65;69.97;100707.41;5081581;28;20979;-56
2024/02/19 07:59:57;;;;;;;7.13;4.90;;;;;;;1.72;70.20;100713.56;5093205;28;20204;-59
2024/02/19 08:02:24;;;;;;;6.73;4.53;;;;;;;1.76;69.29;100707.78;5091650;28;20258;-58
2024/02/19 08:04:53;;;;;;;6.87;5.33;;;;;;;1.84;69.49;100710.56;5077740;28;20201;-58
2024/02/19 08:07:21;;;;;;;6.60;5.07;;;;;;;1.84;68.85;100711.47;5085857;28;20211;-58
2024/02/19 08:09:51;;;;;;;6.30;5.03;;;;;;;1.85;69.72;100709.78;5091987;28;20197;-57
2024/02/19 08:12:19;;;;;;;10.67;5.20;;;;;;;1.85;69.10;100703.03;5091644;28;20270;-60
2024/02/19 08:14:47;;;;;;;8.30;5.83;;;;;;;1.85;68.95;100705.56;5092344;28;20224;-58
2024/02/19 08:17:15;;;;;;;7.70;5.27;;;;;;;1.90;69.28;100714.19;5091675;28;20257;-61
2024/02/19 08:19:43;;;;;;;8.20;5.47;;;;;;;1.89;68.38;100702.31;5091186;28;20568;-60
2024/02/19 08:22:11;;;;;;;5.53;4.93;;;;;;;1.88;69.58;100690.44;5088884;28;20200;-57
2024/02/19 08:24:39;;;;;;;9.67;5.70;;;;;;;1.92;69.35;100702.41;5082645;28;20200;-59
2024/02/19 08:27:09;;;;;;;6.43;5.27;;;;;;;1.93;68.69;100701.59;5089623;28;20250;-59
2024/02/19 08:29:37;;;;;;;9.77;5.57;;;;;;;1.92;68.50;100697.34;5088596;28;20205;-58
2024/02/19 08:32:06;;;;;;;6.40;4.93;;;;;;;1.96;69.30;100689.81;5087743;28;20204;-60
2024/02/19 08:34:34;;;;;;;6.30;5.00;;;;;;;1.98;68.73;100678.00;5089006;28;20213;-65
2024/02/19 08:37:02;;;;;;;7.23;5.70;;;;;;;2.04;69.11;100688.41;5086614;28;20676;-59
2024/02/19 08:39:30;;;;;;;9.63;6.03;;;;;;;2.11;69.45;100690.31;5091562;28;20228;-59
2024/02/19 08:41:58;;;;;;;9.80;5.70;;;;;;;2.15;68.62;100679.44;5091887;28;20611;-59
2024/02/19 08:44:28;;;;;;;9.17;5.33;;;;;;;2.16;68.71;100681.16;5091563;28;20222;-61
2024/02/19 08:46:57;;;;;;;7.83;5.80;;;;;;;2.17;68.07;100673.59;5091138;28;20200;-57
2024/02/19 08:49:25;;;;;;;8.27;5.63;;;;;;;2.24;69.15;100673.78;5097411;28;20220;-60
2024/02/19 08:51:53;;;;;;;8.87;5.37;;;;;;;2.30;69.06;100671.44;5090743;28;20196;-58
2024/02/19 08:54:22;;;;;;;7.73;5.60;;;;;;;2.35;67.88;100672.44;5091138;28;20623;-60
2024/02/19 08:56:49;;;;;;;8.27;5.93;;;;;;;2.42;67.93;100666.72;5089949;28;20215;-58
2024/02/19 08:59:18;;;;;;;9.03;5.97;;;;;;;2.45;68.14;100665.97;5089851;28;20247;-58
2024/02/19 09:01:47;;;;;;;7.67;5.53;;;;;;;2.44;67.75;100651.53;5089563;28;20205;-61
2024/02/19 09:04:16;;;;;;;8.27;6.03;;;;;;;2.42;67.23;100654.88;5079639;28;20633;-59
2024/02/19 09:06:44;;;;;;;10.80;5.37;;;;;;;2.35;67.97;100652.97;5087268;28;20676;-59
2024/02/19 09:09:13;;;;;;;7.93;5.80;;;;;;;2.41;68.14;100665.00;5090461;28;20197;-60
2024/02/19 09:11:41;;;;;;;10.03;5.77;;;;;;;2.39;68.40;100644.63;5090882;28;20278;-64
2024/02/19 09:14:09;;;;;;;6.97;5.63;;;;;;;2.40;67.74;100641.28;5088390;28;20561;-57
2024/02/19 09:16:37;;;;;;;9.03;5.97;;;;;;;2.42;67.95;100644.69;5091564;28;20196;-60
2024/02/19 09:19:08;;;;;;;8.50;5.90;;;;;;;2.44;68.60;100637.13;5090672;28;20258;-58
2024/02/19 09:21:37;;;;;;;8.53;6.17;;;;;;;2.41;68.68;100637.91;5090039;28;20208;-58
2024/02/19 09:24:05;;;;;;;13.20;6.33;;;;;;;2.42;68.94;100633.66;5093812;28;20745;-62
2024/02/19 09:26:33;;;;;;;7.50;5.83;;;;;;;2.46;68.36;100627.00;5090261;28;20258;-62
2024/02/19 09:29:01;;;;;;;12.27;6.60;;;;;;;2.48;68.24;100622.84;5090895;28;20208;-58
2024/02/19 09:31:29;;;;;;;8.00;6.13;;;;;;;2.54;68.41;100612.81;5092398;28;20898;-59
2024/02/19 09:33:57;;;;;;;9.77;6.43;;;;;;;2.58;68.15;100622.31;5090594;28;20243;-59
2024/02/19 09:36:27;;;;;;;8.10;6.10;;;;;;;2.61;68.53;100614.75;5090268;28;20306;-58
2024/02/19 09:38:55;;;;;;;10.23;6.07;;;;;;;2.67;68.34;100614.94;5096733;28;20632;-59
2024/02/19 09:41:23;;;;;;;8.00;6.33;;;;;;;2.75;68.24;100612.59;5090505;28;20668;-59
2024/02/19 09:43:51;;;;;;;12.17;6.40;;;;;;;2.80;67.36;100611.94;5087955;28;20196;-58
2024/02/19 09:46:22;;;;;;;9.10;6.23;;;;;;;2.83;68.41;100614.53;5090365;28;20215;-58
2024/02/19 09:48:54;;;;;;;7.17;5.67;;;;;;;2.89;68.13;100614.72;5089573;28;20205;-60
2024/02/19 09:51:26;;;;;;;13.17;6.03;;;;;;;2.94;67.77;100614.00;5088650;28;20688;-59
2024/02/19 09:54:05;;;;;;;8.20;5.40;;;;;;;2.89;68.14;100607.09;5090455;28;20204;-58
2024/02/19 09:56:34;;;;;;;7.40;5.77;;;;;;;2.88;68.18;100615.56;5087469;28;20296;-62
2024/02/19 09:59:04;;;;;;;7.50;6.17;;;;;;;2.87;69.54;100606.22;5090840;28;20204;-58
2024/02/19 10:01:32;;;;;;;9.10;5.97;;;;;;;2.95;69.73;100606.41;5090442;28;20289;-63
2024/02/19 10:04:00;;;;;;;10.43;6.93;;;;;;;2.99;69.77;100603.13;5091425;28;20245;-59
2024/02/19 10:06:33;;;;;;;7.77;5.87;;;;;;;3.01;69.72;100600.63;5089188;28;20235;-60
2024/02/19 10:09:06;;;;;;;8.10;6.33;;;;;;;3.02;70.29;100597.25;5090852;28;20657;-61
2024/02/19 10:11:36;;;;;;;8.43;6.40;;;;;;;3.03;70.74;100596.44;5086774;28;20236;-60
2024/02/19 10:14:05;;;;;;;10.90;6.73;;;;;;;2.96;70.66;100569.09;5089570;28;20204;-63
2024/02/19 10:16:33;;;;;;;9.53;6.87;;;;;;;2.93;70.63;100585.13;5086575;28;20236;-62
2024/02/19 10:19:05;;;;;;;12.53;7.50;;;;;;;2.89;71.55;100594.38;5086864;28;20205;-65
2024/02/19 10:21:34;;;;;;;10.53;7.37;;;;;;;2.87;71.59;100578.22;5087410;28;20208;-58
2024/02/19 10:24:02;;;;;;;10.20;6.87;;;;;;;2.86;73.10;100579.00;5088832;28;20207;-61
2024/02/19 10:26:30;;;;;;;9.57;7.23;;;;;;;2.84;73.79;100574.72;5093354;28;20200;-59
2024/02/19 10:28:59;;;;;;;10.37;6.57;;;;;;;2.85;73.85;100579.84;5094782;28;20205;-57
2024/02/19 10:31:28;;;;;;;11.90;7.77;;;;;;;2.82;74.48;100564.47;5077268;28;20201;-59
2024/02/19 10:33:56;;;;;;;11.17;7.53;;;;;;;2.85;74.21;100559.47;5084946;28;20205;-61
2024/02/19 10:36:24;;;;;;;14.13;7.97;;;;;;;2.86;74.94;100563.75;5092878;28;20240;-60
2024/02/19 10:38:52;;;;;;;10.43;7.80;;;;;;;2.89;75.29;100568.06;5092312;28;20716;-61
2024/02/19 10:41:23;;;;;;;9.97;7.10;;;;;;;2.88;76.33;100553.63;5093538;28;20329;-60
2024/02/19 10:43:51;;;;;;;10.20;7.20;;;;;;;2.85;75.62;100549.28;5089836;28;20297;-60
2024/02/19 10:46:22;;;;;;;10.27;7.63;;;;;;;2.78;77.10;100538.91;5093916;28;20218;-60
2024/02/19 10:48:52;;;;;;;11.90;8.07;;;;;;;2.74;76.66;100544.75;5087298;28;20216;-61
2024/02/19 10:51:21;;;;;;;10.40;7.33;;;;;;;2.75;77.59;100544.75;5090314;28;20211;-61
2024/02/19 10:53:58;;;;;;;12.00;7.53;;;;;;;2.79;77.79;100533.00;5091018;28;20208;-63
2024/02/19 10:56:34;;;;;;;10.77;7.50;;;;;;;2.84;77.83;100527.22;5093285;28;20223;-60
2024/02/19 10:59:02;;;;;;;11.53;8.33;;;;;;;2.91;78.39;100525.72;5093897;28;20671;-60
2024/02/19 11:01:43;;;;;;;10.30;8.30;;;;;;;2.93;77.41;100520.66;5089259;28;20219;-62
2024/02/19 11:04:23;;;;;;;12.60;8.23;;;;;;;2.92;78.16;100524.88;5085024;28;20208;-61
2024/02/19 11:06:54;;;;;;;15.53;8.60;;;;;;;2.84;78.62;100519.59;5087660;28;20204;-62
2024/02/19 11:09:25;;;;;;;11.33;8.33;;;;;;;2.81;78.44;100521.19;5081083;28;20208;-60
2024/02/19 11:11:58;;;;;;;11.50;7.97;;;;;;;2.77;78.91;100504.97;5097265;28;20274;-60
2024/02/19 11:14:29;;;;;;;10.87;7.73;;;;;;;2.76;78.55;100503.25;5091067;28;20225;-60
2024/02/19 11:16:59;;;;;;;13.07;8.20;;;;;;;2.71;80.17;100497.16;5095689;28;20704;-60
2024/02/19 11:19:28;;;;;;;11.33;8.30;;;;;;;2.70;80.08;100487.81;5089610;28;20291;-62
2024/02/19 11:22:04;;;;;;;12.83;8.23;;;;;;;2.75;80.53;100498.09;5090651;28;20200;-59
2024/02/19 11:24:33;;;;;;;12.47;8.53;;;;;;;2.72;80.05;100486.16;5089683;28;20255;-60
2024/02/19 11:27:03;;;;;;;15.90;9.17;;;;;;;2.70;80.49;100492.03;5085084;28;20236;-67
2024/02/19 11:29:32;;;;;;;11.97;8.03;;;;;;;2.66;80.39;100479.22;5083036;28;20208;-59
2024/02/19 11:32:18;;;;;;;14.10;8.87;;;;;;;2.64;80.52;100482.53;5088706;28;20204;-62
2024/02/19 11:34:49;;;;;;;10.63;8.63;;;;;;;2.62;81.60;100485.06;5089230;28;20205;-62
2024/02/19 11:37:19;;;;;;;13.03;9.13;;;;;;;2.61;81.88;100477.38;5086959;28;20228;-59
2024/02/19 11:39:48;;;;;;;13.47;8.63;;;;;;;2.61;81.23;100477.38;5091824;28;20295;-60